LJPZLDPL

Guest
Details From LJPZ - PORTOROZ
To LDPL - Pula
Flight Number -
Tags generated
Created
Modified
Stats Distance 37 nm / 69 km
Max Altitude 0 ft / 0 m
Waypoints 3
Social Downloads 0
Likes 0
Share VATSIM

Download

Looking for another format? Having issues loading an existing format? Contact us
Advertisement - Login to hide

Notes

Basic altitude profile: - Ascent Rate: 2500ft/min - Ascent Speed: 250kts - Cruise Altitude: 35000ft - Cruise Speed: 420kts - Descent Rate: 1500ft/min - Descent Speed: 250kts Options: - Use NATs: yes - Use PACOTS: yes - Use low airways: yes - Use high airways: no

Route

LJPZ PUL LDPL

ID Type Via Altitude Latitude Longitude Leg Dist Tot Dist Heading (true) Name
O LJPZ APT - 0 ft / 0 m 45.47244˚ 13.61568˚ - 0 nm - PORTOROZ
PUL VOR - 0 ft / 0 m 44.89237˚ 13.91813˚ 37 nm 37 nm 160° / 160° PULA VOR-DME
O LDPL APT - 0 ft / 0 m 44.89353˚ 13.92216˚ 0 nm 37 nm 68° / 68° Pula

Altitude Profile

Advertisement - Login to hide

LJPZ

Details ICAO LJPZ (POW)
Name PORTOROZ
Region Slovenia
Timezone Europe/Ljubljana (UTC+1.0)
Stats Elevation 7 ft / 2 m (AMSL)
Location 45.472445° 13.615681°
Runways 1
Magnetic Variation 3.444° E

METAR

LJPZ 170100Z AUTO VRB02KT 9999 NCD 03/M02 Q1013

Decode

TAF

Not found

Departure Runways

ID Width Length Bearing (true) Bearing (mag) Surface Threshold Offset Overrun Length
15 98 ft / 30 m 3,939 ft / 1,201 m 151.28° 147.84° Asphalt 0 ft / 0 m 0 ft / 0 m
33 98 ft / 30 m 3,939 ft / 1,201 m 331.29° 327.85° Asphalt 751 ft / 229 m 0 ft / 0 m

LDPL

Details ICAO LDPL (PUY)
Name Pula
Region Croatia
Timezone Europe/Zagreb (UTC+1.0)
Stats Elevation 274 ft / 84 m (AMSL)
Location 44.893531° 13.922156°
Runways 1
Magnetic Variation 3.474° E

METAR

LDPL 170100Z AUTO 01007KT CAVOK 05/M03 Q1012

Decode

TAF

TAF LDPL 162325Z 1700/1800 06010KT 9999 BKN040 TX08/1712Z TN04/1705Z

Decode

Destination Runways

ID Width Length Bearing (true) Bearing (mag) Surface Threshold Offset Overrun Length
09 148 ft / 45 m 9,601 ft / 2,926 m 88.24° 84.77° Asphalt 250 ft / 76 m 0 ft / 0 m
27 148 ft / 45 m 9,601 ft / 2,926 m 268.27° 264.80° Asphalt 250 ft / 76 m 0 ft / 0 m

Approach Navaids

Runway Type Ident Frequency Range Bearing (true) Bearing (mag) Slope Elevation
27 Localiser IPU 111.50 MHz 25 nm / 46 km 268.28° 264.81° - 157 ft / 48 m (AMSL)
27 Glidescope IPU 111.50 MHz 25 nm / 46 km 268.28° 264.81° 3.20° 243 ft / 74 m (AMSL)